Time;durP1;ratioP1;P1;durP2;ratioP2;P2;SDS_P1;SDS_P2;PMS_P1;PMS_P2;Temp;Humidity;BMP_temperature;BMP_pressure;BME280_temperature;BME280_humidity;BME280_pressure;Samples;Min_cycle;Max_cycle;Signal;HPM_P1;HPM_P2
2022/09/06 00:00:55;;;;;;;3.05;1.25;;;20.00;99.90;;;;;;5063502;28;20024;-34
2022/09/06 00:03:21;;;;;;;1.27;1.17;;;20.00;99.90;;;;;;5063305;28;20508;-39
2022/09/06 00:05:47;;;;;;;1.48;1.38;;;20.00;99.90;;;;;;5064116;28;20056;-38
2022/09/06 00:08:13;;;;;;;1.63;1.40;;;20.10;99.90;;;;;;5063573;28;20057;-38
2022/09/06 00:10:41;;;;;;;1.83;1.50;;;20.10;99.90;;;;;;5062313;28;20032;-36
2022/09/06 00:13:08;;;;;;;3.90;1.50;;;20.10;99.90;;;;;;5065307;28;20504;-36
2022/09/06 00:15:35;;;;;;;1.52;1.38;;;20.10;99.90;;;;;;5064130;28;20024;-48
2022/09/06 00:18:05;;;;;;;1.50;1.30;;;20.20;99.90;;;;;;5061647;28;20515;-38
2022/09/06 00:20:31;;;;;;;4.95;1.33;;;20.20;99.90;;;;;;5062614;28;20111;-40
2022/09/06 00:23:02;;;;;;;1.38;1.13;;;20.20;99.90;;;;;;5060904;28;20465;-36
2022/09/06 00:25:28;;;;;;;4.20;2.97;;;20.20;99.90;;;;;;5063431;28;20036;-36
2022/09/06 00:27:56;;;;;;;7.28;3.80;;;20.30;99.90;;;;;;5066574;28;20071;-34
2022/09/06 00:30:23;;;;;;;1.95;1.85;;;20.40;99.90;;;;;;5063010;28;20395;-38
2022/09/06 00:32:48;;;;;;;2.60;1.20;;;20.50;99.90;;;;;;5061503;28;20012;-32
2022/09/06 00:35:14;;;;;;;1.10;1.02;;;20.60;99.90;;;;;;5069141;28;20019;-40
2022/09/06 00:37:39;;;;;;;1.83;1.27;;;20.50;99.90;;;;;;5061366;28;20492;-46
2022/09/06 00:40:06;;;;;;;2.42;1.20;;;20.40;99.90;;;;;;5057622;28;20016;-33
2022/09/06 00:42:32;;;;;;;2.83;1.50;;;20.30;99.90;;;;;;5066473;28;20524;-38
2022/09/06 00:44:58;;;;;;;1.40;1.30;;;20.20;99.90;;;;;;5064926;28;20103;-36
2022/09/06 00:47:26;;;;;;;2.92;1.77;;;20.20;99.90;;;;;;5062498;28;20546;-34
2022/09/06 00:49:55;;;;;;;3.45;1.58;;;20.20;99.90;;;;;;5064318;28;20128;-42
2022/09/06 00:52:22;;;;;;;2.38;1.80;;;20.10;99.90;;;;;;5062098;28;20481;-40
2022/09/06 00:54:49;;;;;;;5.30;1.80;;;20.10;99.90;;;;;;5066325;28;20295;-40
2022/09/06 00:57:16;;;;;;;4.00;1.88;;;20.00;99.90;;;;;;5064563;28;20052;-41
2022/09/06 00:59:44;;;;;;;2.83;2.03;;;20.00;99.90;;;;;;5063633;28;21790;-37
2022/09/06 01:02:10;;;;;;;2.13;1.60;;;19.90;99.90;;;;;;5059884;28;20473;-39
2022/09/06 01:04:39;;;;;;;2.58;2.38;;;19.80;99.90;;;;;;5066814;28;20020;-38
2022/09/06 01:07:28;;;;;;;2.20;2.00;;;19.80;99.90;;;;;;5061623;28;20112;-42
2022/09/06 01:09:54;;;;;;;2.65;2.42;;;19.80;99.90;;;;;;5065462;28;20476;-43
2022/09/06 01:12:48;;;;;;;3.83;2.22;;;19.70;99.90;;;;;;5062908;28;20030;-43
2022/09/06 01:15:16;;;;;;;2.35;2.00;;;19.60;99.90;;;;;;5064995;28;20047;-34
2022/09/06 01:18:08;;;;;;;3.97;2.63;;;19.50;99.90;;;;;;5064168;28;20423;-43
2022/09/06 01:20:41;;;;;;;2.00;1.83;;;19.60;99.90;;;;;;5062058;28;20492;-42
2022/09/06 01:23:34;;;;;;;3.30;2.63;;;19.60;99.90;;;;;;5063727;28;20082;-40
2022/09/06 01:26:45;;;;;;;2.40;2.20;;;19.70;99.90;;;;;;5062571;28;20566;-36
2022/09/06 01:29:42;;;;;;;1.88;1.70;;;19.70;99.90;;;;;;5063665;28;20036;-40
2022/09/06 01:32:15;;;;;;;2.30;2.10;;;19.70;99.90;;;;;;5061877;28;20116;-37
2022/09/06 01:34:49;;;;;;;2.45;2.25;;;19.70;99.90;;;;;;5060708;28;20045;-48
2022/09/06 01:37:19;;;;;;;3.00;2.33;;;19.70;99.90;;;;;;5064904;28;20024;-41
2022/09/06 01:39:44;;;;;;;3.10;2.80;;;19.70;99.90;;;;;;5066456;28;20021;-41
2022/09/06 01:42:24;;;;;;;3.75;2.13;;;19.80;99.90;;;;;;5062994;28;20037;-37
2022/09/06 01:45:12;;;;;;;3.38;3.05;;;19.70;99.90;;;;;;5065054;28;20033;-36
2022/09/06 01:48:09;;;;;;;3.80;2.35;;;19.70;99.90;;;;;;5059360;28;20076;-41
2022/09/06 01:51:04;;;;;;;3.22;2.83;;;19.70;99.90;;;;;;5058730;28;20041;-36
2022/09/06 01:53:48;;;;;;;2.60;2.25;;;19.70;99.90;;;;;;5059865;28;20030;-32
2022/09/06 01:56:48;;;;;;;3.22;2.30;;;19.70;99.90;;;;;;5065478;28;20024;-37
2022/09/06 02:00:11;;;;;;;5.38;2.25;;;19.60;99.90;;;;;;5059505;28;20017;-42
2022/09/06 02:02:57;;;;;;;2.15;1.95;;;19.60;99.90;;;;;;5033070;28;20094;-45
2022/09/06 02:05:26;;;;;;;3.07;2.37;;;19.60;99.90;;;;;;5027359;28;20033;-41
2022/09/06 02:07:56;;;;;;;5.95;2.17;;;19.60;99.90;;;;;;5050004;28;20713;-34
2022/09/06 02:10:30;;;;;;;2.60;2.30;;;19.70;99.90;;;;;;5063279;28;20025;-51
2022/09/06 02:12:59;;;;;;;2.25;2.08;;;19.70;99.90;;;;;;5059299;28;20048;-54
2022/09/06 02:15:32;;;;;;;2.28;2.00;;;19.60;99.90;;;;;;5059191;28;20016;-41
2022/09/06 02:18:23;;;;;;;4.40;2.05;;;19.60;99.90;;;;;;5066340;28;20493;-37
2022/09/06 02:20:52;;;;;;;2.80;2.45;;;19.60;99.90;;;;;;5072638;28;20499;-41
2022/09/06 02:23:22;;;;;;;2.47;2.13;;;19.60;99.90;;;;;;5058386;28;20538;-41
2022/09/06 02:25:57;;;;;;;4.43;2.40;;;19.70;99.90;;;;;;5061617;28;20032;-39
2022/09/06 02:28:23;;;;;;;2.22;2.05;;;19.60;99.90;;;;;;5063929;28;20067;-41
2022/09/06 02:30:56;;;;;;;3.55;2.08;;;19.60;99.90;;;;;;5063887;28;20020;-45
2022/09/06 02:33:27;;;;;;;2.63;2.15;;;19.60;99.90;;;;;;5059341;28;20038;-42
2022/09/06 02:35:54;;;;;;;4.10;2.40;;;19.60;99.90;;;;;;5062483;28;20021;-42
2022/09/06 02:38:25;;;;;;;2.35;2.15;;;19.50;99.90;;;;;;5058297;28;20074;-36
2022/09/06 02:40:52;;;;;;;2.35;2.15;;;19.50;99.90;;;;;;5066748;28;20503;-39
2022/09/06 02:43:18;;;;;;;2.38;2.28;;;19.50;99.90;;;;;;5060680;28;20024;-40
2022/09/06 02:45:44;;;;;;;2.30;2.10;;;19.50;99.90;;;;;;5076847;28;20024;-37
2022/09/06 02:48:10;;;;;;;3.33;2.38;;;19.60;99.90;;;;;;5061078;28;20404;-41
2022/09/06 02:50:35;;;;;;;2.60;2.40;;;19.60;99.90;;;;;;5061447;28;20111;-35
2022/09/06 02:53:05;;;;;;;2.65;2.45;;;19.60;99.90;;;;;;5063598;28;20016;-33
2022/09/06 02:55:31;;;;;;;2.50;2.22;;;19.80;99.90;;;;;;5062380;28;20025;-38
2022/09/06 02:57:57;;;;;;;2.42;1.95;;;19.80;99.90;;;;;;5061719;28;20477;-33
2022/09/06 03:00:23;;;;;;;4.13;2.70;;;19.80;99.90;;;;;;5063725;28;20031;-36
2022/09/06 03:02:49;;;;;;;3.92;2.00;;;19.80;99.90;;;;;;5061071;28;20056;-38
2022/09/06 03:05:15;;;;;;;2.83;2.13;;;19.70;99.90;;;;;;5062050;28;20028;-32
2022/09/06 03:07:40;;;;;;;4.47;2.20;;;19.70;99.90;;;;;;5061993;28;20439;-35
2022/09/06 03:10:06;;;;;;;2.63;2.20;;;19.50;99.90;;;;;;5060919;28;20497;-38
2022/09/06 03:12:32;;;;;;;3.38;2.03;;;19.50;99.90;;;;;;5058025;28;20025;-35
2022/09/06 03:14:57;;;;;;;3.28;2.13;;;19.40;99.90;;;;;;5062948;28;20148;-37
2022/09/06 03:17:23;;;;;;;3.75;2.13;;;19.40;99.90;;;;;;5063149;28;20020;-39
2022/09/06 03:19:49;;;;;;;6.97;2.42;;;19.40;99.90;;;;;;5063101;28;20052;-37
2022/09/06 03:22:14;;;;;;;2.63;2.10;;;19.40;99.90;;;;;;5064260;28;20021;-45
2022/09/06 03:24:40;;;;;;;2.10;1.98;;;19.40;99.90;;;;;;5062633;28;20051;-38
2022/09/06 03:27:05;;;;;;;2.42;1.98;;;19.40;99.90;;;;;;5061917;28;20029;-45
2022/09/06 03:29:31;;;;;;;7.18;2.50;;;19.40;99.90;;;;;;5060900;28;20549;-38
2022/09/06 03:31:56;;;;;;;4.63;2.00;;;19.40;99.90;;;;;;5064045;28;20016;-40
2022/09/06 03:34:22;;;;;;;2.15;2.05;;;19.30;99.90;;;;;;5059327;28;20032;-38
2022/09/06 03:36:48;;;;;;;2.95;1.88;;;19.40;99.90;;;;;;5061705;28;20089;-41
2022/09/06 03:39:13;;;;;;;4.20;2.15;;;19.40;99.90;;;;;;5063471;28;20457;-43
2022/09/06 03:41:39;;;;;;;2.70;2.50;;;19.30;99.90;;;;;;5067635;28;20032;-42
2022/09/06 03:44:05;;;;;;;4.15;2.65;;;19.40;99.90;;;;;;5058063;28;20402;-39
2022/09/06 03:46:30;;;;;;;4.30;2.90;;;19.40;99.90;;;;;;5063966;28;20028;-41
2022/09/06 03:48:57;;;;;;;3.10;2.72;;;19.40;99.90;;;;;;5060964;28;20605;-44
2022/09/06 03:51:23;;;;;;;3.28;2.72;;;19.40;99.90;;;;;;5067333;28;20126;-42
2022/09/06 03:53:48;;;;;;;4.82;2.63;;;19.40;99.90;;;;;;5067418;28;20021;-38
2022/09/06 03:56:14;;;;;;;5.22;3.20;;;19.40;99.90;;;;;;5062177;28;20029;-44
2022/09/06 03:58:39;;;;;;;6.60;3.22;;;19.40;99.90;;;;;;5061769;28;20025;-40
2022/09/06 04:01:10;;;;;;;4.63;3.45;;;19.40;99.90;;;;;;5065720;28;20107;-40
2022/09/06 04:03:36;;;;;;;6.82;3.78;;;19.40;99.90;;;;;;5060559;28;20040;-38
2022/09/06 04:06:03;;;;;;;5.00;4.00;;;19.40;99.90;;;;;;5064855;28;20077;-37
2022/09/06 04:08:29;;;;;;;4.43;3.80;;;19.30;99.90;;;;;;5066319;28;20783;-36
2022/09/06 04:10:57;;;;;;;5.40;3.97;;;19.30;99.90;;;;;;5063384;28;20381;-41
2022/09/06 04:13:24;;;;;;;5.18;4.47;;;19.30;99.90;;;;;;5059157;28;20028;-37
2022/09/06 04:15:51;;;;;;;5.72;3.78;;;19.30;99.90;;;;;;5065462;28;20025;-34
2022/09/06 04:18:17;;;;;;;5.93;4.28;;;19.30;99.90;;;;;;5066138;28;20021;-47
2022/09/06 04:20:46;;;;;;;8.00;4.75;;;19.30;99.90;;;;;;5061738;28;20512;-35
2022/09/06 04:23:12;;;;;;;6.28;4.43;;;19.30;99.90;;;;;;5063110;28;20115;-41
2022/09/06 04:25:38;;;;;;;7.05;4.93;;;19.20;99.90;;;;;;5065286;28;20425;-39
2022/09/06 04:28:03;;;;;;;6.38;5.00;;;19.10;99.90;;;;;;5060534;28;20032;-37
2022/09/06 04:30:29;;;;;;;8.00;5.35;;;19.10;99.90;;;;;;5065294;28;20382;-34
2022/09/06 04:32:55;;;;;;;11.20;5.50;;;19.10;99.90;;;;;;5060826;28;20499;-39
2022/09/06 04:35:20;;;;;;;6.68;5.43;;;19.00;99.90;;;;;;5063973;28;20039;-35
2022/09/06 04:37:46;;;;;;;8.55;4.30;;;19.00;99.90;;;;;;5062573;28;20114;-35
2022/09/06 04:40:12;;;;;;;6.78;4.57;;;19.00;99.90;;;;;;5067827;28;20070;-34
2022/09/06 04:42:38;;;;;;;5.63;4.45;;;19.00;99.90;;;;;;5074230;28;20107;-35
2022/09/06 04:45:04;;;;;;;9.48;4.63;;;19.00;99.90;;;;;;5060799;28;20033;-37
2022/09/06 04:47:30;;;;;;;6.45;4.68;;;19.10;99.90;;;;;;5066310;28;20036;-34
2022/09/06 04:49:55;;;;;;;5.93;4.57;;;19.00;99.90;;;;;;5063590;28;20078;-34
2022/09/06 04:52:21;;;;;;;6.30;3.97;;;19.00;99.90;;;;;;5061625;28;20027;-34
2022/09/06 04:54:47;;;;;;;5.70;4.63;;;19.00;99.90;;;;;;5064043;28;20439;-41
2022/09/06 04:57:12;;;;;;;6.90;4.95;;;18.90;99.90;;;;;;5060713;28;20096;-42
2022/09/06 04:59:38;;;;;;;9.50;6.15;;;18.90;99.90;;;;;;5064083;28;20414;-40
2022/09/06 05:02:03;;;;;;;7.68;5.57;;;18.80;99.90;;;;;;5063866;28;20056;-42
2022/09/06 05:04:29;;;;;;;8.50;5.75;;;18.90;99.90;;;;;;5066178;28;20388;-35
2022/09/06 05:07:06;;;;;;;11.10;6.72;;;18.80;99.90;;;;;;5066082;28;20499;-44
2022/09/06 05:09:32;;;;;;;13.20;7.35;;;18.70;99.90;;;;;;5064913;28;20496;-47
2022/09/06 05:11:58;;;;;;;8.18;6.45;;;18.70;99.90;;;;;;5064815;28;20477;-39
2022/09/06 05:14:25;;;;;;;10.00;5.90;;;18.70;99.90;;;;;;5062106;28;20560;-39
2022/09/06 05:16:51;;;;;;;9.20;6.60;;;18.70;99.90;;;;;;5065827;28;20150;-43
2022/09/06 05:19:18;;;;;;;7.07;5.68;;;18.70;99.90;;;;;;5065871;28;20361;-39
2022/09/06 05:21:44;;;;;;;7.95;5.95;;;18.80;99.90;;;;;;5060344;28;20115;-38
2022/09/06 05:24:09;;;;;;;9.38;6.25;;;18.80;99.90;;;;;;5059879;28;20481;-34
2022/09/06 05:26:35;;;;;;;6.20;4.78;;;18.80;99.90;;;;;;5062657;28;20020;-37
2022/09/06 05:29:01;;;;;;;6.53;5.75;;;18.80;99.90;;;;;;5064845;28;20066;-32
2022/09/06 05:31:28;;;;;;;13.10;6.13;;;18.90;99.90;;;;;;5060814;28;20094;-36
2022/09/06 05:33:56;;;;;;;9.93;6.43;;;18.90;99.90;;;;;;5058609;28;20549;-35
2022/09/06 05:36:22;;;;;;;8.07;5.85;;;18.80;99.90;;;;;;5057640;28;20464;-34
2022/09/06 05:38:52;;;;;;;7.43;5.32;;;18.90;99.90;;;;;;5060769;28;20534;-37
2022/09/06 05:41:18;;;;;;;6.88;5.43;;;18.90;99.90;;;;;;5062194;28;20107;-38
2022/09/06 05:43:44;;;;;;;9.32;5.82;;;18.90;99.90;;;;;;5064208;28;20113;-39
2022/09/06 05:46:10;;;;;;;9.15;6.05;;;18.90;99.90;;;;;;5062604;28;20028;-37
2022/09/06 05:48:36;;;;;;;9.98;6.15;;;18.90;99.90;;;;;;5062447;28;20485;-35
2022/09/06 05:51:07;;;;;;;11.18;7.30;;;19.00;99.90;;;;;;5065311;28;20086;-36
2022/09/06 05:53:38;;;;;;;9.75;6.43;;;19.00;99.90;;;;;;5060414;28;20035;-33
2022/09/06 05:56:04;;;;;;;8.95;5.82;;;19.00;99.90;;;;;;5062908;28;20030;-34
2022/09/06 05:58:30;;;;;;;15.43;6.97;;;19.10;99.90;;;;;;5061369;28;20557;-39
2022/09/06 06:01:18;;;;;;;11.38;7.43;;;19.10;99.90;;;;;;5058791;28;20237;-36
2022/09/06 06:03:59;;;;;;;8.70;6.70;;;19.10;99.90;;;;;;5064199;28;20045;-40
2022/09/06 06:06:26;;;;;;;8.77;6.22;;;19.10;99.90;;;;;;5060999;28;20024;-41
2022/09/06 06:08:52;;;;;;;7.40;5.90;;;19.10;99.90;;;;;;5061025;28;20054;-44
2022/09/06 06:11:18;;;;;;;9.68;6.57;;;19.20;99.90;;;;;;5062093;28;20099;-40
2022/09/06 06:13:44;;;;;;;9.40;5.88;;;19.20;99.90;;;;;;5058273;28;20070;-40
2022/09/06 06:16:12;;;;;;;11.98;6.78;;;19.20;99.90;;;;;;5062030;28;20029;-34
2022/09/06 06:18:38;;;;;;;12.43;6.80;;;19.30;99.90;;;;;;5058781;28;20031;-41
2022/09/06 06:21:19;;;;;;;14.55;6.97;;;19.40;99.90;;;;;;5062917;28;20040;-41
2022/09/06 06:23:46;;;;;;;14.25;8.07;;;19.50;99.90;;;;;;5060015;28;20029;-38
2022/09/06 06:26:12;;;;;;;14.02;6.95;;;19.60;99.90;;;;;;5063486;28;20051;-38
2022/09/06 06:28:38;;;;;;;7.40;5.65;;;19.70;99.90;;;;;;5060840;28;20025;-41
2022/09/06 06:31:05;;;;;;;9.90;6.47;;;19.80;99.90;;;;;;5066071;28;20107;-40
2022/09/06 06:33:31;;;;;;;8.88;6.32;;;19.90;99.90;;;;;;5061647;28;20060;-41
2022/09/06 06:36:01;;;;;;;6.78;6.07;;;20.00;99.90;;;;;;5058409;28;20668;-45
2022/09/06 06:38:37;;;;;;;12.23;6.22;;;20.10;99.90;;;;;;5063095;28;20013;-40
2022/09/06 06:41:04;;;;;;;10.23;7.13;;;20.20;99.90;;;;;;5064672;28;20028;-40
2022/09/06 06:43:35;;;;;;;11.27;6.28;;;20.20;99.90;;;;;;5063061;28;20119;-41
2022/09/06 06:46:02;;;;;;;10.35;5.68;;;20.30;99.90;;;;;;5060951;28;20093;-40
2022/09/06 06:48:28;;;;;;;13.70;6.70;;;20.30;99.90;;;;;;5061705;28;20059;-41
2022/09/06 06:50:54;;;;;;;11.32;6.22;;;20.30;99.90;;;;;;5062019;28;20036;-41
2022/09/06 06:53:19;;;;;;;11.73;6.20;;;20.40;99.90;;;;;;5066178;28;20513;-40
2022/09/06 06:55:47;;;;;;;11.70;5.18;;;20.50;99.90;;;;;;5058664;28;21182;-37
2022/09/06 06:58:13;;;;;;;;;;;20.60;99.90;;;;;;5058375;28;20029;-40
2022/09/06 07:00:40;;;;;;;12.95;6.35;;;20.60;99.90;;;;;;5056835;28;19920;-39
2022/09/06 07:03:06;;;;;;;28.73;6.15;;;20.60;99.90;;;;;;5064596;28;20124;-40
2022/09/06 07:05:32;;;;;;;7.82;5.65;;;20.80;99.90;;;;;;5060723;28;20032;-42
2022/09/06 07:07:58;;;;;;;9.00;5.50;;;20.80;99.90;;;;;;5064762;28;20483;-39
2022/09/06 07:10:24;;;;;;;7.43;6.18;;;20.90;99.90;;;;;;5064738;28;20020;-40
2022/09/06 07:12:50;;;;;;;7.45;5.10;;;21.00;99.90;;;;;;5060096;28;20033;-46
2022/09/06 07:15:16;;;;;;;7.82;5.82;;;21.10;99.90;;;;;;5063396;28;20479;-39
2022/09/06 07:17:42;;;;;;;9.02;5.75;;;21.10;99.90;;;;;;5066376;28;20021;-41
2022/09/06 07:20:09;;;;;;;11.55;5.65;;;21.20;99.90;;;;;;5059295;28;20029;-41
2022/09/06 07:22:35;;;;;;;11.50;6.88;;;21.20;99.90;;;;;;5073714;28;20032;-42
2022/09/06 07:25:01;;;;;;;10.77;5.53;;;21.30;99.90;;;;;;5069028;28;20024;-39
2022/09/06 07:27:26;;;;;;;8.85;4.63;;;21.40;99.90;;;;;;5069578;28;20103;-41
2022/09/06 07:29:52;;;;;;;7.28;5.07;;;21.40;99.90;;;;;;5072038;28;20543;-42
2022/09/06 07:32:18;;;;;;;5.38;4.88;;;21.50;99.90;;;;;;5065777;28;20124;-41
2022/09/06 07:34:43;;;;;;;6.90;4.78;;;21.60;99.90;;;;;;5063655;28;20085;-38
2022/09/06 07:37:09;;;;;;;8.63;5.05;;;21.70;99.90;;;;;;5069564;28;20047;-41
2022/09/06 07:39:35;;;;;;;9.02;4.70;;;21.70;99.90;;;;;;5064720;28;20026;-38
2022/09/06 07:42:04;;;;;;;9.02;4.75;;;21.80;99.90;;;;;;5067303;28;20478;-43
2022/09/06 07:44:29;;;;;;;7.68;4.97;;;21.80;99.90;;;;;;5068989;28;20035;-41
2022/09/06 07:46:55;;;;;;;5.40;4.43;;;21.90;99.90;;;;;;5066721;28;20028;-42
2022/09/06 07:49:20;;;;;;;9.80;5.10;;;22.00;99.90;;;;;;5047829;28;20029;-42
2022/09/06 07:51:47;;;;;;;12.20;5.13;;;22.10;99.90;;;;;;5066511;28;20528;-41
2022/09/06 07:54:13;;;;;;;7.87;4.83;;;22.20;99.90;;;;;;5062245;28;20923;-37
2022/09/06 07:56:39;;;;;;;6.45;4.75;;;22.30;99.90;;;;;;5067353;28;20028;-35
2022/09/06 07:59:05;;;;;;;6.82;5.45;;;22.40;99.90;;;;;;5059193;28;20028;-34
2022/09/06 08:01:38;;;;;;;6.55;5.03;;;22.40;99.90;;;;;;5060845;28;21090;-36
2022/09/06 08:04:09;;;;;;;7.03;4.70;;;22.40;99.90;;;;;;5055931;28;20037;-42
2022/09/06 08:06:36;;;;;;;9.20;5.63;;;22.50;99.90;;;;;;5062365;28;20028;-33
2022/09/06 08:09:05;;;;;;;11.25;5.25;;;22.60;99.90;;;;;;5064699;28;20044;-38
2022/09/06 08:11:32;;;;;;;7.88;5.72;;;22.70;99.90;;;;;;5064593;28;20055;-35
2022/09/06 08:13:59;;;;;;;;;;;22.80;99.90;;;;;;5060616;28;20419;-36
2022/09/06 08:16:26;;;;;;;8.38;5.70;;;22.70;99.90;;;;;;5061703;28;19908;-40
2022/09/06 08:18:58;;;;;;;7.53;5.32;;;22.80;99.90;;;;;;5064100;28;20024;-38
2022/09/06 08:21:25;;;;;;;9.13;5.18;;;23.00;99.90;;;;;;5062714;28;20492;-34
2022/09/06 08:23:55;;;;;;;8.40;6.07;;;23.10;99.90;;;;;;5057765;28;20028;-37
2022/09/06 08:26:22;;;;;;;9.80;5.20;;;23.20;99.90;;;;;;5065717;28;20032;-38
2022/09/06 08:28:53;;;;;;;5.28;4.80;;;23.30;99.90;;;;;;5057350;28;20035;-32
2022/09/06 08:31:19;;;;;;;9.57;4.97;;;23.40;99.90;;;;;;5060439;28;20029;-41
2022/09/06 08:33:46;;;;;;;8.27;4.63;;;23.60;99.90;;;;;;5059939;28;20028;-40
2022/09/06 08:36:13;;;;;;;7.25;4.82;;;23.60;99.90;;;;;;5062473;28;20407;-36
2022/09/06 08:38:39;;;;;;;7.50;3.85;;;23.60;99.90;;;;;;5062768;28;20103;-38
2022/09/06 08:41:43;;;;;;;10.13;5.05;;;23.60;99.90;;;;;;5064477;28;20107;-46
2022/09/06 08:44:15;;;;;;;7.97;5.78;;;23.80;99.90;;;;;;5050523;28;20040;-36
2022/09/06 08:46:51;;;;;;;5.55;4.38;;;24.00;99.90;;;;;;5058478;28;20044;-33
2022/09/06 08:49:17;;;;;;;9.30;4.85;;;24.10;99.90;;;;;;5059876;28;20107;-34
2022/09/06 08:51:53;;;;;;;7.32;4.45;;;24.10;99.90;;;;;;5061492;28;20548;-42
2022/09/06 08:54:39;;;;;;;5.38;4.85;;;24.10;99.90;;;;;;5060334;28;20066;-39
2022/09/06 08:57:19;;;;;;;6.57;4.70;;;24.00;99.90;;;;;;5061269;28;20503;-33
2022/09/06 08:59:44;;;;;;;6.75;4.28;;;24.10;99.90;;;;;;5063526;28;20557;-41
2022/09/06 09:02:12;;;;;;;5.55;4.07;;;24.20;99.90;;;;;;5060104;28;20044;-33
2022/09/06 09:05:03;;;;;;;11.15;4.97;;;24.30;99.90;;;;;;5059132;28;20028;-43
2022/09/06 09:07:42;;;;;;;7.70;4.60;;;24.40;99.90;;;;;;5061504;28;20118;-32
2022/09/06 09:10:24;;;;;;;5.40;3.65;;;24.70;99.90;;;;;;5060030;28;20036;-36
2022/09/06 09:12:50;;;;;;;3.72;3.35;;;24.90;99.90;;;;;;5059197;28;20436;-40
2022/09/06 09:15:18;;;;;;;5.70;3.88;;;25.00;99.90;;;;;;5056441;28;20020;-36
2022/09/06 09:17:48;;;;;;;5.32;3.30;;;25.10;99.90;;;;;;5062190;28;20572;-40
2022/09/06 09:20:14;;;;;;;3.38;3.08;;;25.30;99.90;;;;;;5061762;28;20065;-32
2022/09/06 09:22:40;;;;;;;5.97;2.70;;;25.30;99.90;;;;;;5060367;28;20056;-39
2022/09/06 09:25:08;;;;;;;3.10;2.80;;;25.40;99.90;;;;;;5057977;28;20081;-43
2022/09/06 09:27:35;;;;;;;7.25;4.18;;;25.70;99.90;;;;;;5058258;28;20047;-35
2022/09/06 09:30:05;;;;;;;5.15;3.63;;;26.00;99.90;;;;;;5060156;28;20016;-34
2022/09/06 09:32:40;;;;;;;8.55;3.30;;;26.20;99.90;;;;;;5060447;28;20024;-35
2022/09/06 09:35:32;;;;;;;6.03;3.17;;;26.20;99.90;;;;;;5064305;28;20078;-36
2022/09/06 09:38:09;;;;;;;6.15;3.58;;;26.20;99.90;;;;;;5060341;28;20146;-41
2022/09/06 09:40:57;;;;;;;4.20;3.42;;;26.20;99.90;;;;;;5067816;28;20026;-39
2022/09/06 09:43:31;;;;;;;5.00;3.50;;;26.20;99.90;;;;;;5060099;28;20057;-36
2022/09/06 09:46:22;;;;;;;5.13;3.95;;;26.10;99.90;;;;;;5061043;28;20508;-40
2022/09/06 09:49:06;;;;;;;5.40;4.13;;;26.20;99.90;;;;;;5057613;28;20029;-33
2022/09/06 09:51:35;;;;;;;4.10;3.45;;;26.40;99.90;;;;;;5060834;28;20570;-34
2022/09/06 09:54:05;;;;;;;5.22;3.00;;;26.40;99.90;;;;;;5060194;28;20039;-35
2022/09/06 09:56:38;;;;;;;6.30;3.35;;;26.50;99.90;;;;;;5077760;28;20043;-34
2022/09/06 09:59:26;;;;;;;8.32;2.85;;;26.70;99.90;;;;;;5055565;28;20534;-39
2022/09/06 10:02:00;;;;;;;3.10;1.98;;;26.60;99.90;;;;;;5061743;28;20051;-34
2022/09/06 10:04:42;;;;;;;3.33;2.10;;;26.60;99.90;;;;;;5062136;28;20384;-40
2022/09/06 10:07:22;;;;;;;2.63;2.42;;;26.70;99.90;;;;;;5059067;28;20473;-33
2022/09/06 10:10:19;;;;;;;3.85;1.95;;;26.70;99.90;;;;;;5059486;28;20477;-41
2022/09/06 10:12:44;;;;;;;3.50;2.25;;;26.60;99.90;;;;;;5059678;28;20029;-38
2022/09/06 10:15:31;;;;;;;5.43;2.90;;;26.60;99.90;;;;;;5061747;28;20476;-35
2022/09/06 10:17:56;;;;;;;2.10;1.85;;;26.70;99.90;;;;;;5061472;28;20029;-38
2022/09/06 10:20:33;;;;;;;4.15;2.55;;;26.80;99.90;;;;;;5056881;28;20505;-37
2022/09/06 10:23:09;;;;;;;4.15;2.22;;;26.90;99.90;;;;;;5060704;28;20036;-33
2022/09/06 10:25:54;;;;;;;3.15;2.40;;;27.10;99.90;;;;;;5058719;28;20081;-36
2022/09/06 10:28:33;;;;;;;5.93;3.55;;;27.40;99.90;;;;;;5061123;28;21620;-38
2022/09/06 10:31:27;;;;;;;5.22;3.42;;;27.80;99.90;;;;;;5060388;28;20424;-37
2022/09/06 10:34:13;;;;;;;3.03;2.70;;;27.70;99.90;;;;;;5060672;28;20033;-33
2022/09/06 10:36:43;;;;;;;;;;;27.50;99.90;;;;;;5060590;28;20390;-34
2022/09/06 10:39:17;;;;;;;6.10;3.00;;;27.30;99.90;;;;;;5063464;28;19962;-37
2022/09/06 10:42:08;;;;;;;5.55;2.95;;;27.30;99.90;;;;;;5061987;28;20035;-37
2022/09/06 10:44:58;;;;;;;4.82;2.63;;;27.50;99.90;;;;;;5061024;28;20549;-40
2022/09/06 10:48:03;;;;;;;7.30;2.72;;;27.60;99.90;;;;;;5059801;28;20718;-37
2022/09/06 10:51:04;;;;;;;5.40;2.70;;;27.70;99.90;;;;;;5058212;28;20032;-39
2022/09/06 10:53:33;;;;;;;5.47;2.88;;;27.60;99.90;;;;;;5060571;28;20021;-34
2022/09/06 10:56:23;;;;;;;6.18;2.90;;;27.70;99.90;;;;;;5062022;28;20032;-41
2022/09/06 10:58:58;;;;;;;6.68;2.35;;;27.80;99.90;;;;;;5060042;28;20472;-38
2022/09/06 11:01:37;;;;;;;4.10;3.05;;;27.80;99.60;;;;;;5062671;28;20059;-41
2022/09/06 11:04:10;;;;;;;4.63;2.78;;;27.70;99.80;;;;;;5063583;28;20051;-46
2022/09/06 11:06:44;;;;;;;9.02;3.75;;;27.80;99.80;;;;;;5061282;28;20452;-33
2022/09/06 11:09:09;;;;;;;2.65;2.30;;;28.00;99.90;;;;;;5062120;28;20028;-41
2022/09/06 11:11:46;;;;;;;5.10;2.85;;;27.90;99.90;;;;;;5059693;28;20025;-50
2022/09/06 11:14:14;;;;;;;5.68;3.75;;;27.70;99.80;;;;;;5059624;28;20049;-36
2022/09/06 11:17:03;;;;;;;4.45;3.58;;;27.50;99.60;;;;;;5059984;28;20478;-48
2022/09/06 11:19:38;;;;;;;6.07;4.18;;;27.60;99.90;;;;;;5063476;28;20078;-40
2022/09/06 11:22:36;;;;;;;4.70;3.47;;;27.80;99.90;;;;;;5059871;28;20748;-34
2022/09/06 11:25:23;;;;;;;3.92;3.50;;;27.90;99.90;;;;;;5062084;28;20503;-40
2022/09/06 11:28:02;;;;;;;5.85;4.18;;;27.90;99.80;;;;;;5064106;28;20058;-42
2022/09/06 11:30:29;;;;;;;4.13;3.72;;;28.10;99.80;;;;;;5056176;28;20020;-43
2022/09/06 11:33:22;;;;;;;6.15;3.88;;;28.10;99.90;;;;;;5061930;28;20464;-38
2022/09/06 11:35:50;;;;;;;7.18;4.43;;;28.20;99.90;;;;;;5061178;28;20473;-55
2022/09/06 11:38:16;;;;;;;7.25;5.40;;;28.20;99.70;;;;;;5059712;28;20464;-35
2022/09/06 11:40:45;;;;;;;9.02;4.32;;;28.20;99.60;;;;;;5061149;28;20029;-39
2022/09/06 11:43:45;;;;;;;7.60;4.45;;;28.10;99.70;;;;;;5061512;28;20036;-39
2022/09/06 11:46:34;;;;;;;5.45;4.45;;;27.80;99.90;;;;;;5059727;28;20112;-44
2022/09/06 11:49:28;;;;;;;8.85;6.25;;;27.70;99.90;;;;;;5060752;28;20414;-35
2022/09/06 11:51:54;;;;;;;4.82;4.32;;;27.80;99.90;;;;;;5062028;28;20028;-39
2022/09/06 11:54:20;;;;;;;9.82;5.63;;;28.00;99.90;;;;;;5058707;28;20023;-36
2022/09/06 11:56:54;;;;;;;9.73;5.77;;;28.10;99.90;;;;;;5063550;28;20058;-35
2022/09/06 11:59:28;;;;;;;12.43;6.10;;;28.20;99.90;;;;;;5061014;28;20336;-37
2022/09/06 12:02:05;;;;;;;8.73;4.90;;;28.00;99.90;;;;;;5068742;28;20076;-37
2022/09/06 12:04:59;;;;;;;11.48;6.20;;;28.10;99.90;;;;;;5062208;28;20528;-35
2022/09/06 12:07:26;;;;;;;4.63;4.22;;;28.20;99.90;;;;;;5065522;28;20028;-33
2022/09/06 12:09:52;;;;;;;7.70;5.07;;;28.40;99.90;;;;;;5069465;28;20513;-40
2022/09/06 12:12:44;;;;;;;14.38;4.78;;;28.60;99.90;;;;;;5066682;28;20020;-39
2022/09/06 12:15:22;;;;;;;6.68;5.47;;;28.40;99.90;;;;;;5063299;28;20025;-34
2022/09/06 12:17:48;;;;;;;12.60;4.78;;;28.30;99.80;;;;;;5062214;28;20029;-41
2022/09/06 12:20:51;;;;;;;15.85;4.30;;;28.10;99.90;;;;;;5066345;28;20449;-36
2022/09/06 12:23:49;;;;;;;10.35;4.50;;;28.00;99.90;;;;;;5061574;28;20058;-34
2022/09/06 12:26:51;;;;;;;6.00;4.68;;;28.20;99.90;;;;;;5054513;28;20045;-35
2022/09/06 12:29:24;;;;;;;6.55;4.40;;;28.30;99.80;;;;;;5057647;28;20047;-37
2022/09/06 12:31:59;;;;;;;5.53;3.58;;;28.40;99.90;;;;;;5062628;28;20037;-34
2022/09/06 12:34:30;;;;;;;12.65;3.47;;;28.70;99.70;;;;;;5064447;28;20025;-38
2022/09/06 12:37:08;;;;;;;16.63;3.90;;;29.00;99.30;;;;;;5067391;28;20130;-38
2022/09/06 12:39:34;;;;;;;5.68;4.45;;;29.30;98.90;;;;;;5068420;28;20025;-39
2022/09/06 12:42:06;;;;;;;5.93;3.80;;;29.40;98.80;;;;;;5065754;28;20519;-39
2022/09/06 12:44:47;;;;;;;6.88;4.40;;;29.50;98.80;;;;;;5067617;28;20483;-43
2022/09/06 12:47:29;;;;;;;9.80;4.07;;;29.10;98.50;;;;;;5060945;28;20476;-38
2022/09/06 12:50:17;;;;;;;9.70;4.75;;;28.60;99.40;;;;;;5068033;28;20100;-42
2022/09/06 12:52:58;;;;;;;7.43;4.15;;;28.00;99.00;;;;;;5074268;28;20461;-39
2022/09/06 12:55:44;;;;;;;4.03;3.47;;;27.90;99.60;;;;;;5064147;28;20036;-39
2022/09/06 12:58:11;;;;;;;8.15;3.28;;;28.20;99.00;;;;;;5068875;28;20031;-41
2022/09/06 13:00:51;;;;;;;14.95;3.60;;;28.50;98.30;;;;;;5064441;28;20082;-38
2022/09/06 13:03:56;;;;;;;6.45;4.05;;;28.70;98.60;;;;;;5053609;28;20037;-40
2022/09/06 13:06:24;;;;;;;10.00;2.60;;;29.10;98.50;;;;;;5063825;28;20523;-40
2022/09/06 13:08:55;;;;;;;2.72;2.53;;;29.30;98.10;;;;;;5061357;28;20036;-43
2022/09/06 13:11:34;;;;;;;7.25;4.40;;;29.50;97.70;;;;;;5056848;28;20107;-35